sensor_id;sensor_type;location;lat;lon;timestamp;P1;durP1;ratioP1;P2;durP2;ratioP2
22660;SDS011;11497;52.222;21.246;2023-07-30T00:00:36;8.25;;;6.32;;
22660;SDS011;11497;52.222;21.246;2023-07-30T00:03:23;9.48;;;6.10;;
22660;SDS011;11497;52.222;21.246;2023-07-30T00:05:52;9.70;;;7.05;;
22660;SDS011;11497;52.222;21.246;2023-07-30T00:08:20;8.18;;;6.53;;
22660;SDS011;11497;52.222;21.246;2023-07-30T00:10:48;10.50;;;7.00;;
22660;SDS011;11497;52.222;21.246;2023-07-30T00:13:16;7.75;;;6.47;;
22660;SDS011;11497;52.222;21.246;2023-07-30T00:15:47;13.20;;;6.80;;
22660;SDS011;11497;52.222;21.246;2023-07-30T00:18:15;9.70;;;7.25;;
22660;SDS011;11497;52.222;21.246;2023-07-30T00:20:43;8.52;;;7.13;;
22660;SDS011;11497;52.222;21.246;2023-07-30T00:23:11;7.88;;;7.18;;
22660;SDS011;11497;52.222;21.246;2023-07-30T00:25:38;9.25;;;7.18;;
22660;SDS011;11497;52.222;21.246;2023-07-30T00:28:06;12.30;;;8.48;;
22660;SDS011;11497;52.222;21.246;2023-07-30T00:30:34;9.75;;;7.72;;
22660;SDS011;11497;52.222;21.246;2023-07-30T00:33:01;8.80;;;7.78;;
22660;SDS011;11497;52.222;21.246;2023-07-30T00:35:29;11.23;;;8.55;;
22660;SDS011;11497;52.222;21.246;2023-07-30T00:37:57;12.75;;;8.98;;
22660;SDS011;11497;52.222;21.246;2023-07-30T00:40:24;15.52;;;9.38;;
22660;SDS011;11497;52.222;21.246;2023-07-30T00:42:52;11.68;;;9.07;;
22660;SDS011;11497;52.222;21.246;2023-07-30T00:45:20;10.57;;;9.48;;
22660;SDS011;11497;52.222;21.246;2023-07-30T00:47:48;16.48;;;10.40;;
22660;SDS011;11497;52.222;21.246;2023-07-30T00:50:17;10.82;;;8.50;;
22660;SDS011;11497;52.222;21.246;2023-07-30T00:52:45;11.40;;;9.05;;
22660;SDS011;11497;52.222;21.246;2023-07-30T00:55:13;8.95;;;7.38;;
22660;SDS011;11497;52.222;21.246;2023-07-30T00:57:41;11.02;;;7.60;;
22660;SDS011;11497;52.222;21.246;2023-07-30T01:00:10;9.73;;;7.63;;
22660;SDS011;11497;52.222;21.246;2023-07-30T01:02:38;7.10;;;6.40;;
22660;SDS011;11497;52.222;21.246;2023-07-30T01:05:06;9.82;;;7.25;;
22660;SDS011;11497;52.222;21.246;2023-07-30T01:07:34;11.52;;;6.78;;
22660;SDS011;11497;52.222;21.246;2023-07-30T01:10:01;10.63;;;6.70;;
22660;SDS011;11497;52.222;21.246;2023-07-30T01:12:30;10.45;;;6.43;;
22660;SDS011;11497;52.222;21.246;2023-07-30T01:14:58;7.55;;;6.75;;
22660;SDS011;11497;52.222;21.246;2023-07-30T01:17:27;10.93;;;6.70;;
22660;SDS011;11497;52.222;21.246;2023-07-30T01:19:54;11.65;;;6.80;;
22660;SDS011;11497;52.222;21.246;2023-07-30T01:22:23;8.93;;;6.80;;
22660;SDS011;11497;52.222;21.246;2023-07-30T01:24:50;9.98;;;6.70;;
22660;SDS011;11497;52.222;21.246;2023-07-30T01:27:21;9.63;;;6.50;;
22660;SDS011;11497;52.222;21.246;2023-07-30T01:29:51;12.55;;;6.82;;
22660;SDS011;11497;52.222;21.246;2023-07-30T01:32:24;10.45;;;6.63;;
22660;SDS011;11497;52.222;21.246;2023-07-30T01:34:54;11.88;;;6.50;;
22660;SDS011;11497;52.222;21.246;2023-07-30T01:37:22;8.23;;;6.45;;
22660;SDS011;11497;52.222;21.246;2023-07-30T01:39:50;8.15;;;6.15;;
22660;SDS011;11497;52.222;21.246;2023-07-30T01:42:17;9.50;;;6.70;;
22660;SDS011;11497;52.222;21.246;2023-07-30T01:44:45;10.23;;;6.75;;
22660;SDS011;11497;52.222;21.246;2023-07-30T01:47:12;12.43;;;6.85;;
22660;SDS011;11497;52.222;21.246;2023-07-30T01:49:40;7.18;;;6.47;;
22660;SDS011;11497;52.222;21.246;2023-07-30T01:52:08;6.95;;;6.07;;
22660;SDS011;11497;52.222;21.246;2023-07-30T01:54:36;9.75;;;7.05;;
22660;SDS011;11497;52.222;21.246;2023-07-30T01:57:03;9.88;;;6.60;;
22660;SDS011;11497;52.222;21.246;2023-07-30T01:59:31;8.77;;;6.45;;
22660;SDS011;11497;52.222;21.246;2023-07-30T02:01:58;9.57;;;6.25;;
22660;SDS011;11497;52.222;21.246;2023-07-30T02:04:26;10.07;;;6.32;;
22660;SDS011;11497;52.222;21.246;2023-07-30T02:06:54;8.80;;;6.85;;
22660;SDS011;11497;52.222;21.246;2023-07-30T02:09:22;11.38;;;5.95;;
22660;SDS011;11497;52.222;21.246;2023-07-30T02:11:49;7.45;;;6.15;;
22660;SDS011;11497;52.222;21.246;2023-07-30T02:14:17;12.60;;;6.78;;
22660;SDS011;11497;52.222;21.246;2023-07-30T02:16:48;12.70;;;6.63;;
22660;SDS011;11497;52.222;21.246;2023-07-30T02:19:16;7.68;;;6.82;;
22660;SDS011;11497;52.222;21.246;2023-07-30T02:21:43;7.93;;;6.32;;
22660;SDS011;11497;52.222;21.246;2023-07-30T02:24:11;7.60;;;5.75;;
22660;SDS011;11497;52.222;21.246;2023-07-30T02:26:38;9.45;;;6.15;;
22660;SDS011;11497;52.222;21.246;2023-07-30T02:29:06;7.13;;;6.13;;
22660;SDS011;11497;52.222;21.246;2023-07-30T02:31:34;9.68;;;6.78;;
22660;SDS011;11497;52.222;21.246;2023-07-30T02:34:02;10.80;;;6.28;;
22660;SDS011;11497;52.222;21.246;2023-07-30T02:36:30;8.05;;;6.97;;
22660;SDS011;11497;52.222;21.246;2023-07-30T02:38:58;13.15;;;6.78;;
22660;SDS011;11497;52.222;21.246;2023-07-30T02:41:26;7.88;;;6.10;;
22660;SDS011;11497;52.222;21.246;2023-07-30T02:43:54;9.30;;;6.32;;
22660;SDS011;11497;52.222;21.246;2023-07-30T02:46:21;8.30;;;6.28;;
22660;SDS011;11497;52.222;21.246;2023-07-30T02:48:49;10.95;;;6.95;;
22660;SDS011;11497;52.222;21.246;2023-07-30T02:51:16;9.77;;;6.93;;
22660;SDS011;11497;52.222;21.246;2023-07-30T02:53:44;7.45;;;6.50;;
22660;SDS011;11497;52.222;21.246;2023-07-30T02:56:12;7.30;;;6.57;;
22660;SDS011;11497;52.222;21.246;2023-07-30T02:58:40;12.73;;;6.90;;
22660;SDS011;11497;52.222;21.246;2023-07-30T03:01:07;9.35;;;6.93;;
22660;SDS011;11497;52.222;21.246;2023-07-30T03:03:36;8.30;;;7.10;;
22660;SDS011;11497;52.222;21.246;2023-07-30T03:06:04;11.13;;;7.10;;
22660;SDS011;11497;52.222;21.246;2023-07-30T03:08:32;9.70;;;7.18;;
22660;SDS011;11497;52.222;21.246;2023-07-30T03:11:02;9.27;;;7.50;;
22660;SDS011;11497;52.222;21.246;2023-07-30T03:13:30;13.90;;;7.65;;
22660;SDS011;11497;52.222;21.246;2023-07-30T03:15:57;10.70;;;7.88;;
22660;SDS011;11497;52.222;21.246;2023-07-30T03:18:25;12.43;;;8.55;;
22660;SDS011;11497;52.222;21.246;2023-07-30T03:20:57;9.85;;;8.05;;
22660;SDS011;11497;52.222;21.246;2023-07-30T03:23:26;12.25;;;8.68;;
22660;SDS011;11497;52.222;21.246;2023-07-30T03:25:54;12.55;;;8.73;;
22660;SDS011;11497;52.222;21.246;2023-07-30T03:28:22;10.77;;;9.05;;
22660;SDS011;11497;52.222;21.246;2023-07-30T03:30:49;14.52;;;10.52;;
22660;SDS011;11497;52.222;21.246;2023-07-30T03:33:17;14.23;;;10.25;;
22660;SDS011;11497;52.222;21.246;2023-07-30T03:35:45;16.15;;;11.40;;
22660;SDS011;11497;52.222;21.246;2023-07-30T03:38:12;12.52;;;11.23;;
22660;SDS011;11497;52.222;21.246;2023-07-30T03:40:40;12.57;;;10.95;;
22660;SDS011;11497;52.222;21.246;2023-07-30T03:43:08;15.98;;;11.75;;
22660;SDS011;11497;52.222;21.246;2023-07-30T03:45:35;16.98;;;11.50;;
22660;SDS011;11497;52.222;21.246;2023-07-30T03:48:03;15.52;;;11.80;;
22660;SDS011;11497;52.222;21.246;2023-07-30T03:50:31;12.50;;;11.25;;
22660;SDS011;11497;52.222;21.246;2023-07-30T03:52:59;12.63;;;11.07;;
22660;SDS011;11497;52.222;21.246;2023-07-30T03:55:26;13.57;;;11.60;;
22660;SDS011;11497;52.222;21.246;2023-07-30T03:57:55;13.40;;;11.10;;
22660;SDS011;11497;52.222;21.246;2023-07-30T04:00:23;11.77;;;10.35;;
22660;SDS011;11497;52.222;21.246;2023-07-30T04:02:51;15.57;;;11.00;;
22660;SDS011;11497;52.222;21.246;2023-07-30T04:05:18;15.88;;;11.20;;
22660;SDS011;11497;52.222;21.246;2023-07-30T04:07:46;13.25;;;10.60;;
22660;SDS011;11497;52.222;21.246;2023-07-30T04:10:14;16.48;;;11.63;;
22660;SDS011;11497;52.222;21.246;2023-07-30T04:12:42;12.45;;;11.15;;
22660;SDS011;11497;52.222;21.246;2023-07-30T04:15:09;12.07;;;10.65;;
22660;SDS011;11497;52.222;21.246;2023-07-30T04:17:37;12.82;;;10.18;;
22660;SDS011;11497;52.222;21.246;2023-07-30T04:20:05;11.30;;;10.13;;
22660;SDS011;11497;52.222;21.246;2023-07-30T04:22:33;13.52;;;10.23;;
22660;SDS011;11497;52.222;21.246;2023-07-30T04:25:01;13.50;;;10.02;;
22660;SDS011;11497;52.222;21.246;2023-07-30T04:27:29;10.90;;;8.70;;
22660;SDS011;11497;52.222;21.246;2023-07-30T04:30:00;10.10;;;9.00;;
22660;SDS011;11497;52.222;21.246;2023-07-30T04:32:28;10.77;;;8.80;;
22660;SDS011;11497;52.222;21.246;2023-07-30T04:34:56;12.50;;;8.68;;
22660;SDS011;11497;52.222;21.246;2023-07-30T04:37:23;9.02;;;8.05;;
22660;SDS011;11497;52.222;21.246;2023-07-30T04:39:53;10.88;;;7.43;;
22660;SDS011;11497;52.222;21.246;2023-07-30T04:42:21;8.45;;;7.35;;
22660;SDS011;11497;52.222;21.246;2023-07-30T04:44:48;11.18;;;7.40;;
22660;SDS011;11497;52.222;21.246;2023-07-30T04:47:17;9.45;;;7.15;;
22660;SDS011;11497;52.222;21.246;2023-07-30T04:49:45;9.55;;;6.90;;
22660;SDS011;11497;52.222;21.246;2023-07-30T04:52:13;7.65;;;6.47;;
22660;SDS011;11497;52.222;21.246;2023-07-30T04:54:41;7.57;;;6.50;;
22660;SDS011;11497;52.222;21.246;2023-07-30T04:57:09;11.77;;;6.72;;
22660;SDS011;11497;52.222;21.246;2023-07-30T04:59:36;7.82;;;6.68;;
22660;SDS011;11497;52.222;21.246;2023-07-30T05:02:04;6.90;;;6.20;;
22660;SDS011;11497;52.222;21.246;2023-07-30T05:04:32;7.63;;;6.40;;
22660;SDS011;11497;52.222;21.246;2023-07-30T05:07:00;8.10;;;6.07;;
22660;SDS011;11497;52.222;21.246;2023-07-30T05:09:27;7.13;;;6.40;;
22660;SDS011;11497;52.222;21.246;2023-07-30T05:11:55;6.72;;;6.03;;
22660;SDS011;11497;52.222;21.246;2023-07-30T05:14:22;6.95;;;6.25;;
22660;SDS011;11497;52.222;21.246;2023-07-30T05:16:50;6.80;;;5.85;;
22660;SDS011;11497;52.222;21.246;2023-07-30T05:19:18;6.68;;;5.95;;
22660;SDS011;11497;52.222;21.246;2023-07-30T05:21:45;7.90;;;5.80;;
22660;SDS011;11497;52.222;21.246;2023-07-30T05:24:13;7.00;;;6.28;;
22660;SDS011;11497;52.222;21.246;2023-07-30T05:26:41;8.32;;;5.88;;
22660;SDS011;11497;52.222;21.246;2023-07-30T05:29:08;7.03;;;5.70;;
22660;SDS011;11497;52.222;21.246;2023-07-30T05:31:36;6.40;;;5.78;;
22660;SDS011;11497;52.222;21.246;2023-07-30T05:34:04;7.35;;;6.18;;
22660;SDS011;11497;52.222;21.246;2023-07-30T05:36:32;6.88;;;5.75;;
22660;SDS011;11497;52.222;21.246;2023-07-30T05:39:00;6.35;;;5.75;;
22660;SDS011;11497;52.222;21.246;2023-07-30T05:41:27;7.50;;;6.72;;
22660;SDS011;11497;52.222;21.246;2023-07-30T05:43:55;8.43;;;6.55;;
22660;SDS011;11497;52.222;21.246;2023-07-30T05:46:23;7.30;;;6.55;;
22660;SDS011;11497;52.222;21.246;2023-07-30T05:48:51;8.48;;;7.03;;
22660;SDS011;11497;52.222;21.246;2023-07-30T05:51:19;7.40;;;6.70;;
22660;SDS011;11497;52.222;21.246;2023-07-30T05:53:47;6.35;;;5.75;;
22660;SDS011;11497;52.222;21.246;2023-07-30T05:56:14;6.47;;;5.28;;
22660;SDS011;11497;52.222;21.246;2023-07-30T05:58:45;6.43;;;5.40;;
22660;SDS011;11497;52.222;21.246;2023-07-30T06:01:12;6.28;;;5.50;;
22660;SDS011;11497;52.222;21.246;2023-07-30T06:03:40;6.00;;;5.50;;
22660;SDS011;11497;52.222;21.246;2023-07-30T06:06:08;7.57;;;5.30;;
22660;SDS011;11497;52.222;21.246;2023-07-30T06:08:35;5.53;;;4.80;;
22660;SDS011;11497;52.222;21.246;2023-07-30T06:11:03;6.95;;;5.30;;
22660;SDS011;11497;52.222;21.246;2023-07-30T06:13:31;7.55;;;4.82;;
22660;SDS011;11497;52.222;21.246;2023-07-30T06:15:59;5.68;;;4.57;;
22660;SDS011;11497;52.222;21.246;2023-07-30T06:18:26;6.15;;;4.53;;
22660;SDS011;11497;52.222;21.246;2023-07-30T06:20:54;6.30;;;4.90;;
22660;SDS011;11497;52.222;21.246;2023-07-30T06:23:21;5.88;;;4.43;;
22660;SDS011;11497;52.222;21.246;2023-07-30T06:25:49;8.07;;;4.70;;
22660;SDS011;11497;52.222;21.246;2023-07-30T06:28:17;5.18;;;4.38;;
22660;SDS011;11497;52.222;21.246;2023-07-30T06:30:45;7.72;;;4.63;;
22660;SDS011;11497;52.222;21.246;2023-07-30T06:33:13;4.63;;;4.18;;
22660;SDS011;11497;52.222;21.246;2023-07-30T06:35:40;5.20;;;3.63;;
22660;SDS011;11497;52.222;21.246;2023-07-30T06:38:08;6.22;;;3.90;;
22660;SDS011;11497;52.222;21.246;2023-07-30T06:40:36;4.90;;;3.80;;
22660;SDS011;11497;52.222;21.246;2023-07-30T06:43:04;6.70;;;4.00;;
22660;SDS011;11497;52.222;21.246;2023-07-30T06:45:31;4.03;;;3.63;;
22660;SDS011;11497;52.222;21.246;2023-07-30T06:47:59;5.35;;;4.05;;
22660;SDS011;11497;52.222;21.246;2023-07-30T06:50:27;5.35;;;4.13;;
22660;SDS011;11497;52.222;21.246;2023-07-30T06:52:54;7.00;;;4.63;;
22660;SDS011;11497;52.222;21.246;2023-07-30T06:55:22;5.18;;;4.68;;
22660;SDS011;11497;52.222;21.246;2023-07-30T06:57:50;4.97;;;4.50;;
22660;SDS011;11497;52.222;21.246;2023-07-30T07:00:17;5.18;;;4.68;;
22660;SDS011;11497;52.222;21.246;2023-07-30T07:02:48;4.30;;;3.90;;
22660;SDS011;11497;52.222;21.246;2023-07-30T07:05:17;5.70;;;4.47;;
22660;SDS011;11497;52.222;21.246;2023-07-30T07:07:45;5.18;;;3.80;;
22660;SDS011;11497;52.222;21.246;2023-07-30T07:10:13;6.30;;;3.58;;
22660;SDS011;11497;52.222;21.246;2023-07-30T07:12:42;4.10;;;3.70;;
22660;SDS011;11497;52.222;21.246;2023-07-30T07:15:09;5.68;;;3.55;;
22660;SDS011;11497;52.222;21.246;2023-07-30T07:17:37;4.65;;;3.90;;
22660;SDS011;11497;52.222;21.246;2023-07-30T07:20:05;3.92;;;3.50;;
22660;SDS011;11497;52.222;21.246;2023-07-30T07:22:33;5.65;;;4.22;;
22660;SDS011;11497;52.222;21.246;2023-07-30T07:25:01;9.90;;;4.20;;
22660;SDS011;11497;52.222;21.246;2023-07-30T07:27:29;5.80;;;3.75;;
22660;SDS011;11497;52.222;21.246;2023-07-30T07:29:57;4.10;;;3.15;;
22660;SDS011;11497;52.222;21.246;2023-07-30T07:32:25;5.05;;;3.40;;
22660;SDS011;11497;52.222;21.246;2023-07-30T07:34:53;5.15;;;3.58;;
22660;SDS011;11497;52.222;21.246;2023-07-30T07:37:21;7.43;;;3.83;;
22660;SDS011;11497;52.222;21.246;2023-07-30T07:39:49;6.03;;;4.03;;
22660;SDS011;11497;52.222;21.246;2023-07-30T07:42:16;6.75;;;3.60;;
22660;SDS011;11497;52.222;21.246;2023-07-30T07:44:44;5.90;;;3.70;;
22660;SDS011;11497;52.222;21.246;2023-07-30T07:47:12;5.93;;;3.80;;
22660;SDS011;11497;52.222;21.246;2023-07-30T07:49:40;7.15;;;4.25;;
22660;SDS011;11497;52.222;21.246;2023-07-30T07:52:08;6.63;;;3.60;;
22660;SDS011;11497;52.222;21.246;2023-07-30T07:54:36;6.97;;;4.10;;
22660;SDS011;11497;52.222;21.246;2023-07-30T07:57:04;4.70;;;3.88;;
22660;SDS011;11497;52.222;21.246;2023-07-30T07:59:31;6.57;;;3.92;;
22660;SDS011;11497;52.222;21.246;2023-07-30T08:01:59;5.00;;;3.92;;
22660;SDS011;11497;52.222;21.246;2023-07-30T08:04:27;4.50;;;3.78;;
22660;SDS011;11497;52.222;21.246;2023-07-30T08:06:55;4.30;;;3.53;;
22660;SDS011;11497;52.222;21.246;2023-07-30T08:09:26;5.50;;;3.53;;
22660;SDS011;11497;52.222;21.246;2023-07-30T08:11:54;4.53;;;3.70;;
22660;SDS011;11497;52.222;21.246;2023-07-30T08:14:22;5.90;;;3.80;;
22660;SDS011;11497;52.222;21.246;2023-07-30T08:16:49;4.85;;;3.90;;
22660;SDS011;11497;52.222;21.246;2023-07-30T08:19:17;5.00;;;3.70;;
22660;SDS011;11497;52.222;21.246;2023-07-30T08:21:45;5.38;;;3.53;;
22660;SDS011;11497;52.222;21.246;2023-07-30T08:24:13;6.05;;;3.72;;
22660;SDS011;11497;52.222;21.246;2023-07-30T08:26:40;4.15;;;3.85;;
22660;SDS011;11497;52.222;21.246;2023-07-30T08:29:08;5.50;;;3.70;;
22660;SDS011;11497;52.222;21.246;2023-07-30T08:31:38;6.88;;;3.65;;
22660;SDS011;11497;52.222;21.246;2023-07-30T08:34:07;4.60;;;3.42;;
22660;SDS011;11497;52.222;21.246;2023-07-30T08:36:34;3.85;;;3.35;;
22660;SDS011;11497;52.222;21.246;2023-07-30T08:39:02;5.70;;;3.67;;
22660;SDS011;11497;52.222;21.246;2023-07-30T08:41:31;5.03;;;3.63;;
22660;SDS011;11497;52.222;21.246;2023-07-30T08:43:59;4.53;;;3.85;;
22660;SDS011;11497;52.222;21.246;2023-07-30T08:46:26;7.93;;;4.20;;
22660;SDS011;11497;52.222;21.246;2023-07-30T08:48:54;5.07;;;3.50;;
22660;SDS011;11497;52.222;21.246;2023-07-30T08:51:23;4.25;;;3.38;;
22660;SDS011;11497;52.222;21.246;2023-07-30T08:53:53;7.15;;;3.60;;
22660;SDS011;11497;52.222;21.246;2023-07-30T08:56:21;4.40;;;3.65;;
22660;SDS011;11497;52.222;21.246;2023-07-30T08:58:49;5.68;;;3.83;;
22660;SDS011;11497;52.222;21.246;2023-07-30T09:01:19;4.32;;;3.17;;
22660;SDS011;11497;52.222;21.246;2023-07-30T09:03:48;6.60;;;3.95;;
22660;SDS011;11497;52.222;21.246;2023-07-30T09:06:17;4.40;;;3.40;;
22660;SDS011;11497;52.222;21.246;2023-07-30T09:08:44;5.78;;;3.30;;
22660;SDS011;11497;52.222;21.246;2023-07-30T09:11:12;4.38;;;3.33;;
22660;SDS011;11497;52.222;21.246;2023-07-30T09:13:40;3.60;;;2.95;;
22660;SDS011;11497;52.222;21.246;2023-07-30T09:16:12;6.97;;;3.70;;
22660;SDS011;11497;52.222;21.246;2023-07-30T09:18:41;3.97;;;3.25;;
22660;SDS011;11497;52.222;21.246;2023-07-30T09:21:11;7.10;;;3.40;;
22660;SDS011;11497;52.222;21.246;2023-07-30T09:23:43;4.60;;;2.97;;
22660;SDS011;11497;52.222;21.246;2023-07-30T09:26:11;5.18;;;3.83;;
22660;SDS011;11497;52.222;21.246;2023-07-30T09:28:40;4.78;;;3.28;;
22660;SDS011;11497;52.222;21.246;2023-07-30T09:31:07;6.85;;;3.70;;
22660;SDS011;11497;52.222;21.246;2023-07-30T09:33:48;3.78;;;3.20;;
22660;SDS011;11497;52.222;21.246;2023-07-30T09:36:18;4.90;;;3.42;;
22660;SDS011;11497;52.222;21.246;2023-07-30T09:38:46;3.53;;;3.20;;
22660;SDS011;11497;52.222;21.246;2023-07-30T09:41:16;4.90;;;3.17;;
22660;SDS011;11497;52.222;21.246;2023-07-30T09:43:44;4.68;;;2.90;;
22660;SDS011;11497;52.222;21.246;2023-07-30T09:46:11;4.13;;;2.97;;
22660;SDS011;11497;52.222;21.246;2023-07-30T09:48:39;3.80;;;3.05;;
22660;SDS011;11497;52.222;21.246;2023-07-30T09:51:07;4.10;;;3.00;;
22660;SDS011;11497;52.222;21.246;2023-07-30T09:53:35;7.50;;;3.25;;
22660;SDS011;11497;52.222;21.246;2023-07-30T09:56:04;4.20;;;3.35;;
22660;SDS011;11497;52.222;21.246;2023-07-30T09:58:34;4.20;;;2.83;;
22660;SDS011;11497;52.222;21.246;2023-07-30T10:01:04;4.85;;;2.88;;
22660;SDS011;11497;52.222;21.246;2023-07-30T10:03:32;5.60;;;3.42;;
22660;SDS011;11497;52.222;21.246;2023-07-30T10:06:03;5.43;;;3.40;;
22660;SDS011;11497;52.222;21.246;2023-07-30T10:08:37;5.32;;;3.20;;
22660;SDS011;11497;52.222;21.246;2023-07-30T10:11:06;4.20;;;2.92;;
22660;SDS011;11497;52.222;21.246;2023-07-30T10:13:35;4.50;;;3.38;;
22660;SDS011;11497;52.222;21.246;2023-07-30T10:16:08;3.10;;;2.78;;
22660;SDS011;11497;52.222;21.246;2023-07-30T10:18:43;3.67;;;2.77;;
22660;SDS011;11497;52.222;21.246;2023-07-30T10:21:21;4.18;;;2.88;;
22660;SDS011;11497;52.222;21.246;2023-07-30T10:23:50;4.28;;;3.20;;
22660;SDS011;11497;52.222;21.246;2023-07-30T10:26:29;3.63;;;2.90;;
22660;SDS011;11497;52.222;21.246;2023-07-30T10:29:13;3.53;;;3.22;;
22660;SDS011;11497;52.222;21.246;2023-07-30T10:34:09;5.10;;;3.58;;
22660;SDS011;11497;52.222;21.246;2023-07-30T10:36:47;5.13;;;3.22;;
22660;SDS011;11497;52.222;21.246;2023-07-30T10:39:19;3.80;;;3.42;;
22660;SDS011;11497;52.222;21.246;2023-07-30T10:41:50;4.05;;;3.38;;
22660;SDS011;11497;52.222;21.246;2023-07-30T10:46:50;4.72;;;3.45;;
22660;SDS011;11497;52.222;21.246;2023-07-30T10:49:18;5.13;;;3.72;;
22660;SDS011;11497;52.222;21.246;2023-07-30T10:51:45;6.78;;;3.60;;
22660;SDS011;11497;52.222;21.246;2023-07-30T10:54:13;3.85;;;3.17;;
22660;SDS011;11497;52.222;21.246;2023-07-30T10:56:42;3.70;;;3.20;;
22660;SDS011;11497;52.222;21.246;2023-07-30T10:59:11;3.58;;;3.00;;
22660;SDS011;11497;52.222;21.246;2023-07-30T11:01:40;4.80;;;3.53;;
22660;SDS011;11497;52.222;21.246;2023-07-30T11:04:13;4.47;;;3.30;;
22660;SDS011;11497;52.222;21.246;2023-07-30T11:06:48;5.95;;;4.05;;
22660;SDS011;11497;52.222;21.246;2023-07-30T11:09:19;5.25;;;3.53;;
22660;SDS011;11497;52.222;21.246;2023-07-30T11:11:48;5.00;;;3.97;;
22660;SDS011;11497;52.222;21.246;2023-07-30T11:14:16;4.38;;;3.55;;
22660;SDS011;11497;52.222;21.246;2023-07-30T11:16:47;6.88;;;5.15;;
22660;SDS011;11497;52.222;21.246;2023-07-30T11:19:15;4.20;;;3.60;;
22660;SDS011;11497;52.222;21.246;2023-07-30T11:21:49;5.30;;;3.80;;
22660;SDS011;11497;52.222;21.246;2023-07-30T11:24:20;6.80;;;3.95;;
22660;SDS011;11497;52.222;21.246;2023-07-30T11:26:57;5.53;;;3.72;;
22660;SDS011;11497;52.222;21.246;2023-07-30T11:29:26;4.10;;;3.40;;
22660;SDS011;11497;52.222;21.246;2023-07-30T11:31:57;4.25;;;3.85;;
22660;SDS011;11497;52.222;21.246;2023-07-30T11:34:26;9.70;;;7.30;;
22660;SDS011;11497;52.222;21.246;2023-07-30T11:36:54;6.00;;;3.90;;
22660;SDS011;11497;52.222;21.246;2023-07-30T11:39:23;5.30;;;4.10;;
22660;SDS011;11497;52.222;21.246;2023-07-30T11:41:51;6.20;;;4.50;;
22660;SDS011;11497;52.222;21.246;2023-07-30T11:46:59;7.18;;;4.10;;
22660;SDS011;11497;52.222;21.246;2023-07-30T11:49:27;7.28;;;5.20;;
22660;SDS011;11497;52.222;21.246;2023-07-30T11:52:07;8.80;;;4.07;;
22660;SDS011;11497;52.222;21.246;2023-07-30T11:54:35;4.85;;;4.00;;
22660;SDS011;11497;52.222;21.246;2023-07-30T11:57:03;5.93;;;4.18;;
22660;SDS011;11497;52.222;21.246;2023-07-30T11:59:31;4.68;;;3.88;;
22660;SDS011;11497;52.222;21.246;2023-07-30T12:01:59;5.68;;;4.40;;
22660;SDS011;11497;52.222;21.246;2023-07-30T12:04:30;6.15;;;5.07;;
22660;SDS011;11497;52.222;21.246;2023-07-30T12:06:58;4.70;;;4.20;;
22660;SDS011;11497;52.222;21.246;2023-07-30T12:09:28;5.07;;;4.00;;
22660;SDS011;11497;52.222;21.246;2023-07-30T12:12:03;4.65;;;4.10;;
22660;SDS011;11497;52.222;21.246;2023-07-30T12:17:16;4.57;;;4.18;;
22660;SDS011;11497;52.222;21.246;2023-07-30T12:19:44;5.68;;;4.03;;
22660;SDS011;11497;52.222;21.246;2023-07-30T12:22:12;6.80;;;5.45;;
22660;SDS011;11497;52.222;21.246;2023-07-30T12:24:40;4.55;;;4.00;;
22660;SDS011;11497;52.222;21.246;2023-07-30T12:27:08;4.13;;;3.70;;
22660;SDS011;11497;52.222;21.246;2023-07-30T12:29:39;3.90;;;3.58;;
22660;SDS011;11497;52.222;21.246;2023-07-30T12:32:07;7.03;;;4.18;;
22660;SDS011;11497;52.222;21.246;2023-07-30T12:34:35;4.45;;;4.05;;
22660;SDS011;11497;52.222;21.246;2023-07-30T12:37:03;4.30;;;3.90;;
22660;SDS011;11497;52.222;21.246;2023-07-30T12:39:31;4.55;;;4.13;;
22660;SDS011;11497;52.222;21.246;2023-07-30T12:42:00;5.90;;;3.90;;
22660;SDS011;11497;52.222;21.246;2023-07-30T12:44:28;5.18;;;3.80;;
22660;SDS011;11497;52.222;21.246;2023-07-30T12:46:55;5.13;;;4.45;;
22660;SDS011;11497;52.222;21.246;2023-07-30T12:49:23;5.65;;;3.90;;
22660;SDS011;11497;52.222;21.246;2023-07-30T12:51:51;5.07;;;4.13;;
22660;SDS011;11497;52.222;21.246;2023-07-30T12:54:19;5.10;;;4.20;;
22660;SDS011;11497;52.222;21.246;2023-07-30T12:56:47;5.80;;;4.30;;
22660;SDS011;11497;52.222;21.246;2023-07-30T12:59:14;6.78;;;4.47;;
22660;SDS011;11497;52.222;21.246;2023-07-30T13:01:42;8.30;;;4.65;;
22660;SDS011;11497;52.222;21.246;2023-07-30T13:04:14;6.45;;;4.63;;
22660;SDS011;11497;52.222;21.246;2023-07-30T13:06:41;5.03;;;4.30;;
22660;SDS011;11497;52.222;21.246;2023-07-30T13:09:09;4.40;;;4.00;;
22660;SDS011;11497;52.222;21.246;2023-07-30T13:11:37;7.15;;;4.55;;
22660;SDS011;11497;52.222;21.246;2023-07-30T13:14:05;4.72;;;4.20;;
22660;SDS011;11497;52.222;21.246;2023-07-30T13:16:33;8.23;;;4.25;;
22660;SDS011;11497;52.222;21.246;2023-07-30T13:19:01;6.07;;;4.55;;
22660;SDS011;11497;52.222;21.246;2023-07-30T13:21:28;26.10;;;4.70;;
22660;SDS011;11497;52.222;21.246;2023-07-30T13:23:56;4.57;;;4.13;;
22660;SDS011;11497;52.222;21.246;2023-07-30T13:26:24;4.68;;;3.97;;
22660;SDS011;11497;52.222;21.246;2023-07-30T13:28:51;5.97;;;4.50;;
22660;SDS011;11497;52.222;21.246;2023-07-30T13:31:19;4.40;;;4.00;;
22660;SDS011;11497;52.222;21.246;2023-07-30T13:33:47;5.55;;;4.32;;
22660;SDS011;11497;52.222;21.246;2023-07-30T13:36:14;5.57;;;4.40;;
22660;SDS011;11497;52.222;21.246;2023-07-30T13:38:42;4.63;;;4.07;;
22660;SDS011;11497;52.222;21.246;2023-07-30T13:41:10;6.97;;;4.10;;
22660;SDS011;11497;52.222;21.246;2023-07-30T13:43:38;5.45;;;3.50;;
22660;SDS011;11497;52.222;21.246;2023-07-30T13:46:05;4.20;;;3.70;;
22660;SDS011;11497;52.222;21.246;2023-07-30T13:48:33;6.53;;;3.30;;
22660;SDS011;11497;52.222;21.246;2023-07-30T13:51:01;4.78;;;4.22;;
22660;SDS011;11497;52.222;21.246;2023-07-30T13:53:30;4.10;;;3.70;;
22660;SDS011;11497;52.222;21.246;2023-07-30T13:55:57;4.00;;;3.60;;
22660;SDS011;11497;52.222;21.246;2023-07-30T13:58:25;4.28;;;3.60;;
22660;SDS011;11497;52.222;21.246;2023-07-30T14:00:53;9.00;;;3.70;;
22660;SDS011;11497;52.222;21.246;2023-07-30T14:03:22;6.65;;;3.95;;
22660;SDS011;11497;52.222;21.246;2023-07-30T14:05:50;4.30;;;3.90;;
22660;SDS011;11497;52.222;21.246;2023-07-30T14:08:17;6.63;;;3.90;;
22660;SDS011;11497;52.222;21.246;2023-07-30T14:10:45;3.70;;;3.20;;
22660;SDS011;11497;52.222;21.246;2023-07-30T14:13:13;5.15;;;3.72;;
22660;SDS011;11497;52.222;21.246;2023-07-30T14:15:40;3.70;;;3.40;;
22660;SDS011;11497;52.222;21.246;2023-07-30T14:18:08;7.85;;;3.65;;
22660;SDS011;11497;52.222;21.246;2023-07-30T14:20:36;5.30;;;3.30;;
22660;SDS011;11497;52.222;21.246;2023-07-30T14:23:05;4.32;;;3.88;;
22660;SDS011;11497;52.222;21.246;2023-07-30T14:25:32;6.97;;;4.30;;
22660;SDS011;11497;52.222;21.246;2023-07-30T14:28:00;5.43;;;3.78;;
22660;SDS011;11497;52.222;21.246;2023-07-30T14:30:28;4.47;;;3.65;;
22660;SDS011;11497;52.222;21.246;2023-07-30T14:32:55;4.80;;;4.00;;
22660;SDS011;11497;52.222;21.246;2023-07-30T14:35:23;5.15;;;3.80;;
22660;SDS011;11497;52.222;21.246;2023-07-30T14:37:51;7.63;;;4.13;;
22660;SDS011;11497;52.222;21.246;2023-07-30T14:40:19;5.15;;;4.30;;
22660;SDS011;11497;52.222;21.246;2023-07-30T14:42:47;6.40;;;4.03;;
22660;SDS011;11497;52.222;21.246;2023-07-30T14:45:14;6.50;;;4.20;;
22660;SDS011;11497;52.222;21.246;2023-07-30T14:47:42;4.55;;;4.03;;